Time;durP1;ratioP1;P1;durP2;ratioP2;P2;SDS_P1;SDS_P2;PMS_P1;PMS_P2;Temp;Humidity;BMP_temperature;BMP_pressure;BME280_temperature;BME280_humidity;BME280_pressure;Samples;Min_cycle;Max_cycle;Signal;HPM_P1;HPM_P2
2022/07/01 00:02:08;;;;;;;5.43;3.60;;;20.30;99.90;;;;;;5035864;28;20022;-52
2022/07/01 00:04:34;;;;;;;3.70;3.40;;;20.40;99.90;;;;;;5034614;28;20025;-49
2022/07/01 00:06:59;;;;;;;3.65;3.35;;;20.40;99.90;;;;;;5036058;28;20484;-49
2022/07/01 00:09:25;;;;;;;4.47;3.63;;;20.40;99.90;;;;;;5034402;28;20037;-48
2022/07/01 00:11:51;;;;;;;5.65;3.05;;;20.30;99.90;;;;;;5034630;28;20498;-49
2022/07/01 00:14:16;;;;;;;3.55;3.25;;;20.30;99.90;;;;;;5034411;28;20022;-49
2022/07/01 00:16:42;;;;;;;3.97;3.67;;;20.30;99.90;;;;;;5034381;28;20022;-48
2022/07/01 00:19:08;;;;;;;4.70;3.55;;;20.30;99.90;;;;;;5034772;28;20017;-47
2022/07/01 00:21:34;;;;;;;3.30;3.00;;;20.20;99.90;;;;;;5034151;28;20021;-49
2022/07/01 00:24:00;;;;;;;4.05;3.30;;;20.10;99.90;;;;;;5034843;28;20052;-49
2022/07/01 00:26:26;;;;;;;2.97;2.72;;;20.10;99.90;;;;;;5035824;28;20080;-49
2022/07/01 00:28:51;;;;;;;3.47;3.17;;;20.00;99.90;;;;;;5034974;28;20032;-49
2022/07/01 00:31:17;;;;;;;7.53;2.97;;;20.10;99.90;;;;;;5035296;28;20017;-49
2022/07/01 00:33:43;;;;;;;3.78;3.30;;;20.10;99.90;;;;;;5035291;28;20033;-49
2022/07/01 00:36:08;;;;;;;3.75;3.45;;;20.10;99.90;;;;;;5035600;28;20029;-48
2022/07/01 00:38:34;;;;;;;3.40;3.10;;;20.00;99.90;;;;;;5034016;28;20029;-51
2022/07/01 00:41:00;;;;;;;4.05;3.38;;;20.00;99.90;;;;;;5033929;28;20022;-50
2022/07/01 00:43:25;;;;;;;3.58;2.80;;;20.10;99.90;;;;;;5034285;28;20070;-48
2022/07/01 00:45:52;;;;;;;3.85;3.45;;;20.10;99.90;;;;;;5033923;28;20121;-52
2022/07/01 00:48:20;;;;;;;4.22;3.83;;;20.10;99.90;;;;;;5034165;28;20025;-51
2022/07/01 00:50:46;;;;;;;3.97;3.40;;;20.00;99.90;;;;;;5033811;28;20032;-52
2022/07/01 00:53:14;;;;;;;3.50;3.20;;;20.00;99.90;;;;;;5033743;28;20029;-48
2022/07/01 00:55:41;;;;;;;3.92;3.50;;;20.20;99.90;;;;;;5033687;28;20076;-48
2022/07/01 00:58:07;;;;;;;4.22;3.83;;;20.10;99.90;;;;;;5034670;28;20026;-51
2022/07/01 01:00:33;;;;;;;4.30;3.63;;;20.00;99.90;;;;;;5034935;28;20026;-49
2022/07/01 01:02:59;;;;;;;3.30;3.00;;;20.00;99.90;;;;;;5034160;28;20083;-51
2022/07/01 01:05:25;;;;;;;5.22;3.40;;;20.10;99.90;;;;;;5034022;28;20052;-51
2022/07/01 01:07:51;;;;;;;4.43;3.75;;;20.10;99.90;;;;;;5034117;28;20025;-48
2022/07/01 01:10:17;;;;;;;4.03;3.60;;;20.00;99.90;;;;;;5034686;28;20543;-54
2022/07/01 01:12:43;;;;;;;3.63;3.25;;;20.00;99.90;;;;;;5034416;28;20029;-52
2022/07/01 01:15:10;;;;;;;4.50;4.10;;;20.00;99.90;;;;;;5033415;28;20025;-53
2022/07/01 01:17:37;;;;;;;4.40;4.00;;;20.00;99.90;;;;;;5033410;28;20397;-50
2022/07/01 01:20:03;;;;;;;4.40;3.97;;;19.80;99.90;;;;;;5034523;28;20104;-49
2022/07/01 01:22:29;;;;;;;6.32;4.05;;;19.70;99.90;;;;;;5034415;28;20484;-53
2022/07/01 01:24:56;;;;;;;4.88;4.43;;;19.60;99.90;;;;;;5033109;28;20036;-53
2022/07/01 01:27:21;;;;;;;4.40;4.00;;;19.50;99.90;;;;;;5034222;28;20025;-52
2022/07/01 01:29:47;;;;;;;7.97;4.75;;;19.60;99.90;;;;;;5034324;28;20037;-49
2022/07/01 01:32:13;;;;;;;5.72;4.65;;;19.70;99.90;;;;;;5032262;28;20112;-54
2022/07/01 01:34:39;;;;;;;5.97;4.90;;;19.70;99.90;;;;;;5033481;28;20021;-54
2022/07/01 01:37:08;;;;;;;6.03;5.30;;;19.60;99.90;;;;;;5033808;28;20025;-52
2022/07/01 01:39:36;;;;;;;5.30;4.22;;;19.60;99.90;;;;;;5032804;28;20083;-53
2022/07/01 01:42:04;;;;;;;7.78;4.47;;;19.50;99.90;;;;;;5032770;28;20026;-53
2022/07/01 01:44:30;;;;;;;5.03;4.32;;;19.30;99.90;;;;;;5033145;28;20039;-52
2022/07/01 01:46:56;;;;;;;4.97;4.38;;;19.10;99.90;;;;;;5033955;28;20100;-55
2022/07/01 01:49:21;;;;;;;6.50;4.60;;;19.10;99.90;;;;;;5032615;28;20026;-54
2022/07/01 01:51:47;;;;;;;5.15;4.28;;;19.10;99.90;;;;;;5032561;28;20400;-55
2022/07/01 01:54:12;;;;;;;5.55;4.88;;;19.00;99.90;;;;;;5032621;28;20037;-52
2022/07/01 01:56:38;;;;;;;5.55;4.55;;;19.00;99.90;;;;;;5033763;28;20067;-52
2022/07/01 01:59:04;;;;;;;5.30;4.50;;;18.90;99.90;;;;;;5033583;28;20534;-52
2022/07/01 02:01:30;;;;;;;5.07;4.32;;;19.00;99.90;;;;;;5032364;28;20112;-51
2022/07/01 02:03:56;;;;;;;5.90;4.45;;;19.00;99.90;;;;;;5033704;28;20107;-49
2022/07/01 02:06:22;;;;;;;8.25;4.45;;;19.00;99.90;;;;;;5032313;28;20030;-52
2022/07/01 02:08:48;;;;;;;6.50;4.35;;;19.00;99.90;;;;;;5033413;28;20025;-54
2022/07/01 02:11:14;;;;;;;7.93;4.68;;;18.90;99.90;;;;;;5032286;28;20037;-50
2022/07/01 02:13:40;;;;;;;6.18;4.30;;;18.90;99.90;;;;;;5032533;28;20549;-53
2022/07/01 02:16:05;;;;;;;4.70;4.20;;;18.90;99.90;;;;;;5033065;28;20021;-52
2022/07/01 02:18:32;;;;;;;11.98;7.43;;;18.90;99.90;;;;;;5033439;28;20029;-53
2022/07/01 02:20:59;;;;;;;6.93;5.50;;;18.80;99.90;;;;;;5033319;28;20446;-52
2022/07/01 02:23:25;;;;;;;6.25;4.00;;;18.60;99.90;;;;;;5033409;28;20075;-51
2022/07/01 02:25:51;;;;;;;7.05;4.22;;;18.70;99.90;;;;;;5032059;28;20028;-52
2022/07/01 02:28:16;;;;;;;5.38;4.00;;;18.60;99.90;;;;;;5032033;28;20025;-52
2022/07/01 02:30:42;;;;;;;4.65;4.00;;;18.60;99.90;;;;;;5033390;28;20075;-53
2022/07/01 02:33:08;;;;;;;6.45;3.90;;;18.60;99.90;;;;;;5031837;28;20083;-54
2022/07/01 02:35:39;;;;;;;11.98;8.20;;;18.60;99.90;;;;;;5032165;28;20465;-50
2022/07/01 02:38:05;;;;;;;6.18;4.72;;;18.40;99.90;;;;;;5031922;28;20116;-49
2022/07/01 02:40:31;;;;;;;5.30;4.03;;;18.50;99.90;;;;;;5033039;28;20074;-55
2022/07/01 02:42:57;;;;;;;4.80;3.95;;;18.40;99.90;;;;;;5032563;28;20104;-54
2022/07/01 02:45:25;;;;;;;5.45;3.60;;;18.40;99.90;;;;;;5031724;28;20022;-53
2022/07/01 02:47:50;;;;;;;7.90;4.13;;;18.40;99.90;;;;;;5033000;28;20067;-54
2022/07/01 02:50:18;;;;;;;11.18;5.63;;;18.40;99.90;;;;;;5031740;28;20018;-52
2022/07/01 02:52:45;;;;;;;3.75;3.35;;;18.40;99.90;;;;;;5031639;28;20030;-50
2022/07/01 02:55:12;;;;;;;5.47;3.58;;;18.50;99.90;;;;;;5031677;28;20028;-52
2022/07/01 02:57:38;;;;;;;4.55;3.33;;;18.50;99.90;;;;;;5032979;28;20025;-52
2022/07/01 03:00:06;;;;;;;3.70;3.00;;;18.60;99.90;;;;;;5031500;28;20029;-54
2022/07/01 03:02:32;;;;;;;4.40;2.30;;;18.70;99.90;;;;;;5032802;28;20029;-53
2022/07/01 03:04:58;;;;;;;3.35;2.22;;;18.60;99.90;;;;;;5032788;28;20092;-50
2022/07/01 03:07:24;;;;;;;3.00;2.47;;;18.70;99.90;;;;;;5032809;28;20040;-53
2022/07/01 03:09:50;;;;;;;3.42;2.67;;;18.60;99.90;;;;;;5032632;28;20044;-52
2022/07/01 03:12:25;;;;;;;5.38;3.40;;;18.60;99.90;;;;;;5031415;28;20029;-50
2022/07/01 03:14:59;;;;;;;6.50;4.13;;;18.50;99.90;;;;;;5031391;28;20030;-54
2022/07/01 03:17:30;;;;;;;3.35;2.50;;;18.40;99.90;;;;;;5032176;28;20022;-52
2022/07/01 03:19:56;;;;;;;3.90;2.72;;;18.40;99.90;;;;;;5032852;28;20040;-53
2022/07/01 03:22:28;;;;;;;6.78;2.50;;;18.40;99.90;;;;;;5031383;28;20075;-48
2022/07/01 03:24:54;;;;;;;2.53;1.95;;;18.30;99.90;;;;;;5032259;28;20026;-52
2022/07/01 03:27:20;;;;;;;3.78;2.15;;;18.30;99.90;;;;;;5031392;28;20087;-54
2022/07/01 03:29:46;;;;;;;2.65;2.17;;;18.30;99.90;;;;;;5031338;28;20041;-51
2022/07/01 03:32:12;;;;;;;5.57;2.85;;;18.30;99.90;;;;;;5031318;28;20025;-54
2022/07/01 03:34:40;;;;;;;3.78;2.58;;;18.30;99.90;;;;;;5032831;28;20033;-52
2022/07/01 03:37:07;;;;;;;3.17;1.75;;;18.30;99.90;;;;;;5031382;28;20036;-51
2022/07/01 03:39:33;;;;;;;5.75;2.13;;;18.20;99.90;;;;;;5032915;28;20112;-49
2022/07/01 03:41:59;;;;;;;1.70;1.55;;;18.30;99.90;;;;;;5032541;28;20144;-50
2022/07/01 03:44:25;;;;;;;3.22;1.75;;;18.30;99.90;;;;;;5032812;28;20021;-49
2022/07/01 03:46:50;;;;;;;2.17;1.52;;;18.30;99.90;;;;;;5032577;28;20032;-48
2022/07/01 03:49:16;;;;;;;1.63;1.50;;;18.30;99.90;;;;;;5031169;28;20022;-50
2022/07/01 03:51:42;;;;;;;3.05;1.40;;;18.30;99.90;;;;;;5032427;28;20036;-50
2022/07/01 03:56:52;;;;;;;3.83;1.70;;;18.20;99.90;;;;;;5036160;28;20079;-53
2022/07/01 03:59:17;;;;;;;3.10;1.48;;;18.20;99.90;;;;;;5034885;28;20017;-48
2022/07/01 04:01:43;;;;;;;5.00;1.35;;;18.20;99.90;;;;;;5035039;28;20028;-51
2022/07/01 04:04:08;;;;;;;1.85;1.58;;;18.20;99.90;;;;;;5035993;28;20079;-52
2022/07/01 04:06:35;;;;;;;2.67;1.50;;;18.20;99.90;;;;;;5035890;28;20100;-49
2022/07/01 04:09:00;;;;;;;4.60;1.75;;;18.20;99.90;;;;;;5034925;28;20415;-49
2022/07/01 04:11:26;;;;;;;1.90;1.65;;;18.20;99.90;;;;;;5034566;28;20034;-48
2022/07/01 04:13:52;;;;;;;3.95;2.17;;;18.30;99.90;;;;;;5035693;28;20122;-49
2022/07/01 04:16:18;;;;;;;2.45;1.85;;;18.30;99.90;;;;;;5034537;28;20032;-50
2022/07/01 04:18:45;;;;;;;3.28;1.92;;;18.30;99.90;;;;;;5034435;28;20091;-48
2022/07/01 04:23:56;;;;;;;4.95;1.90;;;18.30;99.90;;;;;;5036234;28;20037;-48
2022/07/01 04:26:23;;;;;;;2.55;1.67;;;18.40;99.90;;;;;;5035693;28;20049;-48
2022/07/01 04:28:52;;;;;;;3.22;1.52;;;18.40;99.90;;;;;;5035360;28;20026;-48
2022/07/01 04:31:18;;;;;;;3.95;1.98;;;18.30;99.90;;;;;;5034421;28;20021;-48
2022/07/01 04:33:45;;;;;;;3.97;1.90;;;18.20;99.90;;;;;;5035639;28;20032;-47
2022/07/01 04:36:11;;;;;;;2.55;2.10;;;18.30;99.90;;;;;;5035258;28;20036;-48
2022/07/01 04:38:36;;;;;;;2.85;1.90;;;18.40;99.90;;;;;;5034412;28;20052;-48
2022/07/01 04:43:46;;;;;;;2.42;1.70;;;18.30;99.90;;;;;;5035878;28;20037;-47
2022/07/01 04:46:11;;;;;;;2.63;2.42;;;18.40;99.90;;;;;;5035840;28;20033;-48
2022/07/01 04:48:37;;;;;;;3.92;1.98;;;18.40;99.90;;;;;;5035389;28;20028;-49
2022/07/01 04:51:03;;;;;;;1.88;1.67;;;18.40;99.90;;;;;;5034981;28;20025;-47
2022/07/01 04:53:28;;;;;;;2.00;1.80;;;18.50;99.90;;;;;;5034015;28;20377;-48
2022/07/01 04:55:54;;;;;;;2.72;2.33;;;18.50;99.90;;;;;;5035892;28;20068;-48
2022/07/01 04:58:19;;;;;;;1.73;1.63;;;18.50;99.90;;;;;;5035202;28;20075;-49
2022/07/01 05:00:46;;;;;;;2.78;1.77;;;18.60;99.90;;;;;;5033928;28;20029;-47
2022/07/01 05:03:14;;;;;;;2.45;1.58;;;18.60;99.90;;;;;;5033973;28;20029;-47
2022/07/01 05:05:39;;;;;;;2.58;1.70;;;18.80;99.90;;;;;;5034349;28;20036;-48
2022/07/01 05:08:05;;;;;;;3.33;1.80;;;18.90;99.90;;;;;;5032982;28;20025;-47
2022/07/01 05:10:31;;;;;;;1.73;1.63;;;18.90;99.90;;;;;;5033689;28;20069;-47
2022/07/01 05:12:56;;;;;;;2.22;1.80;;;19.00;99.90;;;;;;5034913;28;20061;-48
2022/07/01 05:15:22;;;;;;;1.83;1.63;;;19.10;99.90;;;;;;5033804;28;20017;-48
2022/07/01 05:23:15;;;;;;;2.33;2.13;;;19.10;99.90;;;;;;5034832;28;20036;-48
2022/07/01 05:25:41;;;;;;;2.70;1.80;;;18.90;99.90;;;;;;5033604;28;20025;-47
2022/07/01 05:28:07;;;;;;;2.75;2.38;;;18.90;99.90;;;;;;5034759;28;20028;-47
2022/07/01 05:30:32;;;;;;;2.72;1.98;;;19.00;99.90;;;;;;5034581;28;20499;-50
2022/07/01 05:32:58;;;;;;;2.83;1.60;;;18.90;99.90;;;;;;5033284;28;20033;-50
2022/07/01 05:35:23;;;;;;;2.75;1.60;;;19.00;99.90;;;;;;5034855;28;20021;-48
2022/07/01 05:37:49;;;;;;;3.03;1.70;;;19.00;99.90;;;;;;5034619;28;20021;-48
2022/07/01 05:40:14;;;;;;;5.93;1.30;;;19.00;99.90;;;;;;5034557;28;20052;-48
2022/07/01 05:42:40;;;;;;;7.80;1.40;;;19.00;99.90;;;;;;5033179;28;20025;-49
2022/07/01 05:45:06;;;;;;;1.77;1.42;;;19.20;99.90;;;;;;5033170;28;20026;-48
2022/07/01 05:47:32;;;;;;;1.60;1.35;;;19.30;99.90;;;;;;5033151;28;20033;-48
2022/07/01 05:49:57;;;;;;;3.03;0.88;;;19.30;99.90;;;;;;5034190;28;20076;-50
2022/07/01 05:52:23;;;;;;;3.05;1.00;;;19.40;99.90;;;;;;5032997;28;20060;-48
2022/07/01 05:54:48;;;;;;;1.10;1.00;;;19.50;99.90;;;;;;5033939;28;20033;-48
2022/07/01 05:57:14;;;;;;;1.30;0.93;;;19.60;99.90;;;;;;5034185;28;20480;-48
2022/07/01 05:59:40;;;;;;;1.05;0.95;;;19.50;99.90;;;;;;5034396;28;20084;-52
2022/07/01 06:02:06;;;;;;;1.10;0.98;;;19.30;99.90;;;;;;5034092;28;20057;-48
2022/07/01 06:04:31;;;;;;;1.02;0.75;;;19.30;99.90;;;;;;5033905;28;20045;-49
2022/07/01 06:06:57;;;;;;;1.90;0.70;;;19.40;99.90;;;;;;5032716;28;20443;-51
2022/07/01 06:09:22;;;;;;;3.25;0.90;;;19.40;99.90;;;;;;5033928;28;20445;-50
2022/07/01 06:11:48;;;;;;;2.58;0.77;;;19.60;99.90;;;;;;5033840;28;20021;-52
2022/07/01 06:14:14;;;;;;;0.63;0.63;;;19.60;99.90;;;;;;5034330;28;20065;-49
2022/07/01 06:16:39;;;;;;;0.75;0.43;;;19.70;99.90;;;;;;5033752;28;20041;-51
2022/07/01 06:19:06;;;;;;;0.80;0.60;;;19.80;99.90;;;;;;5032340;28;20021;-48
2022/07/01 06:21:32;;;;;;;0.90;0.50;;;19.90;99.90;;;;;;5032505;28;20491;-49
2022/07/01 06:23:58;;;;;;;2.80;0.75;;;20.00;99.90;;;;;;5033669;28;20026;-51
2022/07/01 06:26:24;;;;;;;1.50;0.43;;;20.20;99.90;;;;;;5032791;28;20029;-50
2022/07/01 06:28:49;;;;;;;1.33;0.60;;;20.40;99.90;;;;;;5032733;28;20136;-50
2022/07/01 06:31:15;;;;;;;3.58;0.50;;;20.40;99.90;;;;;;5033793;28;20025;-50
2022/07/01 06:33:40;;;;;;;0.95;0.68;;;20.50;99.90;;;;;;5033763;28;20026;-48
2022/07/01 06:36:06;;;;;;;0.82;0.50;;;20.60;99.90;;;;;;5032638;28;20112;-48
2022/07/01 06:38:32;;;;;;;1.77;0.50;;;20.70;99.90;;;;;;5032317;28;20030;-50
2022/07/01 06:43:43;;;;;;;1.52;0.60;;;20.90;99.90;;;;;;5033818;28;20035;-49
2022/07/01 06:46:10;;;;;;;2.47;0.60;;;21.20;99.90;;;;;;5033397;28;20048;-50
2022/07/01 06:48:35;;;;;;;0.82;0.60;;;21.50;99.90;;;;;;5032180;28;20025;-51
2022/07/01 06:51:02;;;;;;;2.45;0.68;;;21.60;99.90;;;;;;5032419;28;20087;-50
2022/07/01 06:53:28;;;;;;;1.27;0.70;;;21.90;99.90;;;;;;5031972;28;20052;-50
2022/07/01 06:55:53;;;;;;;1.05;0.50;;;22.70;99.90;;;;;;5032046;28;20423;-51
2022/07/01 06:58:19;;;;;;;2.53;1.23;;;23.80;99.90;;;;;;5032001;28;20022;-51
2022/07/01 07:00:45;;;;;;;0.85;0.40;;;24.80;99.90;;;;;;5033303;28;20049;-51
2022/07/01 07:03:10;;;;;;;2.83;0.57;;;25.10;99.90;;;;;;5033292;28;20087;-55
2022/07/01 07:05:36;;;;;;;1.80;0.60;;;24.80;99.90;;;;;;5031986;28;20071;-53
2022/07/01 07:08:02;;;;;;;2.55;0.70;;;24.70;99.90;;;;;;5032869;28;20030;-54
2022/07/01 07:10:28;;;;;;;0.75;0.60;;;24.80;99.90;;;;;;5032322;28;20044;-53
2022/07/01 07:12:53;;;;;;;1.90;0.70;;;25.00;99.90;;;;;;5031803;28;20029;-51
2022/07/01 07:15:19;;;;;;;0.93;0.73;;;25.20;99.90;;;;;;5033119;28;20036;-50
2022/07/01 07:17:45;;;;;;;1.42;1.00;;;25.50;99.90;;;;;;5033166;28;20022;-54
2022/07/01 07:20:11;;;;;;;1.05;0.60;;;26.00;99.90;;;;;;5032621;28;20029;-51
2022/07/01 07:22:36;;;;;;;3.35;1.00;;;26.20;99.90;;;;;;5031813;28;20024;-52
2022/07/01 07:25:02;;;;;;;1.35;0.90;;;26.10;99.90;;;;;;5032995;28;20026;-50
2022/07/01 07:27:28;;;;;;;4.05;0.80;;;25.80;99.90;;;;;;5031840;28;20047;-57
2022/07/01 07:29:54;;;;;;;1.77;0.82;;;25.40;99.90;;;;;;5032623;28;20480;-50
2022/07/01 07:32:19;;;;;;;1.90;0.60;;;25.20;99.90;;;;;;5037126;28;20089;-51
2022/07/01 07:34:45;;;;;;;2.67;0.73;;;24.70;99.90;;;;;;5035518;28;20029;-52
2022/07/01 07:37:11;;;;;;;1.77;0.85;;;24.20;99.90;;;;;;5036807;28;20017;-55
2022/07/01 07:39:37;;;;;;;1.90;0.90;;;24.00;99.90;;;;;;5035546;28;20026;-50
2022/07/01 07:42:04;;;;;;;0.90;0.73;;;23.60;99.90;;;;;;5035419;28;20024;-51
2022/07/01 07:44:29;;;;;;;0.55;0.45;;;23.40;99.90;;;;;;5035833;28;20112;-55
2022/07/01 07:46:56;;;;;;;0.95;0.60;;;23.00;99.90;;;;;;5035381;28;20124;-50
2022/07/01 07:49:22;;;;;;;2.67;0.80;;;22.80;99.90;;;;;;5036622;28;20025;-52
2022/07/01 07:51:48;;;;;;;1.10;1.00;;;22.70;99.90;;;;;;5037144;28;20025;-51
2022/07/01 07:54:14;;;;;;;0.95;0.90;;;22.50;99.90;;;;;;5036484;28;20063;-51
2022/07/01 07:56:39;;;;;;;2.75;0.70;;;22.30;99.90;;;;;;5035577;28;20017;-50
2022/07/01 07:59:05;;;;;;;1.15;0.73;;;22.00;99.90;;;;;;5036083;28;20028;-51
2022/07/01 08:01:31;;;;;;;1.67;0.63;;;21.90;99.90;;;;;;5035754;28;20384;-50
2022/07/01 08:03:56;;;;;;;0.82;0.60;;;21.80;99.90;;;;;;5035174;28;20025;-52
2022/07/01 08:06:22;;;;;;;1.25;0.70;;;21.80;99.90;;;;;;5035106;28;20036;-51
2022/07/01 08:08:47;;;;;;;3.92;1.02;;;21.70;99.90;;;;;;5034960;28;20037;-55
2022/07/01 08:11:13;;;;;;;1.67;0.80;;;21.60;99.90;;;;;;5036481;28;20091;-50
2022/07/01 08:13:39;;;;;;;2.97;1.05;;;21.40;99.90;;;;;;5034914;28;20052;-50
2022/07/01 08:16:05;;;;;;;1.05;0.90;;;21.30;99.90;;;;;;5034904;28;20080;-54
2022/07/01 08:18:30;;;;;;;2.45;0.60;;;21.20;99.90;;;;;;5034868;28;20056;-54
2022/07/01 08:20:56;;;;;;;3.22;0.80;;;21.30;99.90;;;;;;5034672;28;20060;-52
2022/07/01 08:23:22;;;;;;;1.35;0.60;;;21.40;99.90;;;;;;5035968;28;20028;-53
2022/07/01 08:25:49;;;;;;;0.90;0.70;;;21.50;99.90;;;;;;5035996;28;20028;-54
2022/07/01 08:28:15;;;;;;;2.28;0.70;;;21.40;99.90;;;;;;5034947;28;20025;-54
2022/07/01 08:30:41;;;;;;;2.25;0.80;;;21.60;99.90;;;;;;5034765;28;20056;-50
2022/07/01 08:33:06;;;;;;;1.50;1.10;;;21.40;99.90;;;;;;5035781;28;20025;-51
2022/07/01 08:35:32;;;;;;;2.85;0.70;;;21.30;99.90;;;;;;5035683;28;20080;-50
2022/07/01 08:37:58;;;;;;;1.52;0.82;;;21.10;99.90;;;;;;5034470;28;20030;-50
2022/07/01 08:40:28;;;;;;;1.85;1.00;;;21.00;99.90;;;;;;5034238;28;20071;-52
2022/07/01 08:43:03;;;;;;;2.22;0.70;;;20.90;99.90;;;;;;5034167;28;20018;-53
2022/07/01 08:45:30;;;;;;;2.58;0.70;;;20.80;99.90;;;;;;5035508;28;20472;-52
2022/07/01 08:51:18;;;;;;;2.97;0.70;;;20.70;99.90;;;;;;5035682;28;20032;-51
2022/07/01 08:53:44;;;;;;;1.52;0.85;;;20.60;99.90;;;;;;5034158;28;20029;-57
2022/07/01 08:58:54;;;;;;;2.65;1.00;;;20.70;99.90;;;;;;5035831;28;20083;-51
2022/07/01 09:01:25;;;;;;;1.40;0.70;;;20.60;99.90;;;;;;5035134;28;20021;-52
2022/07/01 09:03:52;;;;;;;5.38;1.42;;;20.60;99.90;;;;;;5034056;28;20128;-50
2022/07/01 09:06:25;;;;;;;4.25;1.00;;;20.60;99.90;;;;;;5035228;28;20057;-53
2022/07/01 09:08:51;;;;;;;5.78;1.00;;;20.60;99.90;;;;;;5035220;28;20029;-49
2022/07/01 09:11:22;;;;;;;3.15;0.90;;;20.70;99.90;;;;;;5034744;28;20072;-48
2022/07/01 09:14:11;;;;;;;2.72;0.90;;;20.60;99.90;;;;;;5033700;28;20025;-49
2022/07/01 09:16:45;;;;;;;1.20;1.10;;;20.70;99.90;;;;;;5033653;28;20025;-51
2022/07/01 09:19:13;;;;;;;1.70;0.82;;;20.70;99.90;;;;;;5034919;28;20025;-50
2022/07/01 09:21:39;;;;;;;2.95;0.80;;;20.80;99.90;;;;;;5033368;28;20093;-48
2022/07/01 09:24:23;;;;;;;1.23;0.75;;;21.00;99.90;;;;;;5034558;28;20108;-50
2022/07/01 09:27:00;;;;;;;2.20;0.93;;;21.30;99.90;;;;;;5034384;28;20113;-49
2022/07/01 09:29:31;;;;;;;1.15;0.73;;;21.60;99.90;;;;;;5035303;28;20419;-53
2022/07/01 09:31:58;;;;;;;1.98;0.80;;;21.70;99.90;;;;;;5033443;28;20048;-51
2022/07/01 09:34:24;;;;;;;1.05;0.70;;;21.80;99.90;;;;;;5034533;28;20025;-50
2022/07/01 09:36:54;;;;;;;4.60;0.80;;;21.80;99.90;;;;;;5034497;28;20105;-49
2022/07/01 09:39:21;;;;;;;1.88;0.88;;;21.90;99.90;;;;;;5034587;28;20045;-49
2022/07/01 09:41:47;;;;;;;1.50;0.85;;;21.90;99.90;;;;;;5034519;28;20029;-50
2022/07/01 09:44:12;;;;;;;1.25;0.80;;;21.90;99.90;;;;;;5034648;28;20033;-49
2022/07/01 09:46:55;;;;;;;5.35;0.80;;;22.00;99.90;;;;;;5033119;28;20488;-48
2022/07/01 09:49:21;;;;;;;1.33;0.90;;;22.10;99.90;;;;;;5033550;28;20029;-53
2022/07/01 09:51:49;;;;;;;1.55;1.00;;;22.10;99.90;;;;;;5033105;28;20021;-52
2022/07/01 09:54:15;;;;;;;4.32;1.00;;;22.10;99.90;;;;;;5033207;28;20036;-52
2022/07/01 09:56:41;;;;;;;2.97;1.10;;;22.00;99.90;;;;;;5032973;28;20092;-53
2022/07/01 09:59:06;;;;;;;4.20;0.90;;;22.00;99.90;;;;;;5034481;28;20380;-48
2022/07/01 10:01:33;;;;;;;1.38;1.17;;;21.80;99.90;;;;;;5034080;28;20025;-51
2022/07/01 10:04:01;;;;;;;2.50;1.10;;;21.60;99.90;;;;;;5033218;28;20048;-50
2022/07/01 10:06:35;;;;;;;2.67;1.10;;;21.50;99.90;;;;;;5033805;28;20242;-52
2022/07/01 10:09:30;;;;;;;1.98;0.73;;;21.60;99.90;;;;;;5031393;28;20026;-51
2022/07/01 10:12:20;;;;;;;1.27;0.80;;;21.60;99.90;;;;;;5032080;28;20033;-50
2022/07/01 10:14:46;;;;;;;2.20;0.95;;;21.60;99.90;;;;;;5033854;28;20022;-54
2022/07/01 10:17:27;;;;;;;1.35;0.90;;;21.60;99.90;;;;;;5033887;28;20045;-53
2022/07/01 10:20:08;;;;;;;0.90;0.80;;;21.80;99.90;;;;;;5034006;28;20079;-52
2022/07/01 10:22:36;;;;;;;4.57;0.98;;;21.70;99.90;;;;;;5034030;28;20075;-52
2022/07/01 10:25:31;;;;;;;5.80;0.88;;;21.40;99.90;;;;;;5033821;28;20029;-51
2022/07/01 10:28:15;;;;;;;3.40;1.00;;;21.30;99.90;;;;;;5033715;28;20030;-54
2022/07/01 10:30:53;;;;;;;3.00;0.95;;;21.40;99.90;;;;;;5032547;28;20033;-56
2022/07/01 10:33:28;;;;;;;2.53;0.80;;;21.50;99.90;;;;;;5033972;28;20057;-50
2022/07/01 10:35:54;;;;;;;4.72;0.73;;;21.50;99.90;;;;;;5033701;28;20030;-53
2022/07/01 10:38:19;;;;;;;3.50;1.40;;;21.40;99.90;;;;;;5033971;28;20025;-48
2022/07/01 10:40:48;;;;;;;3.45;0.80;;;21.60;99.90;;;;;;5033444;28;20021;-51
2022/07/01 10:43:31;;;;;;;1.33;0.80;;;21.60;99.90;;;;;;5033578;28;20021;-51
2022/07/01 10:45:57;;;;;;;2.70;0.75;;;22.00;99.90;;;;;;5033726;28;20018;-50
2022/07/01 10:48:24;;;;;;;6.70;0.77;;;22.60;99.90;;;;;;5033396;28;20024;-53
2022/07/01 10:50:51;;;;;;;1.30;0.80;;;23.30;99.90;;;;;;5032437;28;20116;-51
2022/07/01 10:53:18;;;;;;;4.47;0.93;;;23.50;99.90;;;;;;5033415;28;20056;-50
2022/07/01 10:55:48;;;;;;;1.33;0.75;;;23.70;99.90;;;;;;5032193;28;20112;-48
2022/07/01 10:58:15;;;;;;;1.25;0.70;;;24.00;99.90;;;;;;5032433;28;20032;-50
2022/07/01 11:00:43;;;;;;;3.30;0.80;;;24.30;99.90;;;;;;5031999;28;20575;-52
2022/07/01 11:03:21;;;;;;;2.22;0.90;;;24.50;99.90;;;;;;5032121;28;20022;-53
2022/07/01 11:05:50;;;;;;;1.73;0.80;;;24.60;99.90;;;;;;5036055;28;20546;-49
2022/07/01 11:08:16;;;;;;;1.20;0.63;;;24.60;99.90;;;;;;5036135;28;20025;-50
2022/07/01 11:10:42;;;;;;;2.30;0.98;;;24.70;99.90;;;;;;5035858;28;20029;-53
2022/07/01 11:13:12;;;;;;;4.15;1.10;;;24.60;99.90;;;;;;5035934;28;20037;-51
2022/07/01 11:15:38;;;;;;;3.10;0.60;;;24.30;99.90;;;;;;5036044;28;20108;-52
2022/07/01 11:18:04;;;;;;;4.32;1.10;;;24.20;99.90;;;;;;5037231;28;20045;-51
2022/07/01 11:20:31;;;;;;;4.50;1.05;;;23.70;99.90;;;;;;5035822;28;20060;-51
2022/07/01 11:22:57;;;;;;;2.80;1.02;;;23.20;99.90;;;;;;5035937;28;20028;-53
2022/07/01 11:25:23;;;;;;;1.48;0.80;;;23.20;99.90;;;;;;5035812;28;20026;-54
2022/07/01 11:27:50;;;;;;;1.63;0.70;;;22.80;99.90;;;;;;5035711;28;20021;-54
2022/07/01 11:30:17;;;;;;;2.22;0.82;;;22.90;99.90;;;;;;5035769;28;20056;-53
2022/07/01 11:32:47;;;;;;;0.63;0.60;;;23.30;99.90;;;;;;5035926;28;20030;-53
2022/07/01 11:41:22;;;;;;;2.85;0.68;;;23.80;99.90;;;;;;5036824;28;20033;-49
2022/07/01 11:43:50;;;;;;;1.30;0.82;;;24.20;99.90;;;;;;5036747;28;20049;-54
2022/07/01 11:46:16;;;;;;;5.22;1.05;;;24.10;99.90;;;;;;5035767;28;20068;-49
2022/07/01 11:48:44;;;;;;;1.65;0.60;;;23.80;99.90;;;;;;5035416;28;20060;-52
2022/07/01 11:51:14;;;;;;;1.48;0.60;;;24.00;99.90;;;;;;5035957;28;20044;-52
2022/07/01 11:53:46;;;;;;;4.85;0.95;;;24.10;99.90;;;;;;5035538;28;20033;-48
2022/07/01 11:56:12;;;;;;;3.75;1.00;;;24.30;99.90;;;;;;5035528;28;20064;-52
2022/07/01 11:58:42;;;;;;;1.02;0.60;;;24.70;99.90;;;;;;5035194;28;20022;-52
2022/07/01 12:01:08;;;;;;;2.60;0.70;;;25.00;99.90;;;;;;5036286;28;20033;-48
2022/07/01 12:03:35;;;;;;;4.57;1.10;;;24.90;99.90;;;;;;5035196;28;20030;-52
2022/07/01 12:06:01;;;;;;;1.35;0.70;;;24.50;99.90;;;;;;5035062;28;20029;-51
2022/07/01 12:08:27;;;;;;;3.00;1.23;;;24.60;99.90;;;;;;5035363;28;20028;-50
2022/07/01 12:10:53;;;;;;;3.20;1.15;;;24.60;99.90;;;;;;5036777;28;20037;-50
2022/07/01 12:13:23;;;;;;;3.33;1.00;;;24.80;99.90;;;;;;5034856;28;20034;-53
2022/07/01 12:15:49;;;;;;;1.30;0.55;;;24.90;99.90;;;;;;5034534;28;20033;-48
2022/07/01 12:18:16;;;;;;;3.30;0.82;;;25.10;99.90;;;;;;5034845;28;20029;-49
2022/07/01 12:20:54;;;;;;;0.90;0.57;;;24.60;99.90;;;;;;5035019;28;20073;-48
2022/07/01 12:23:20;;;;;;;0.85;0.65;;;24.50;99.90;;;;;;5036121;28;20029;-52
2022/07/01 12:25:50;;;;;;;5.35;0.80;;;24.70;99.90;;;;;;5035087;28;20025;-50
2022/07/01 12:28:26;;;;;;;2.30;1.45;;;24.40;99.90;;;;;;5034709;28;20029;-50
2022/07/01 12:31:09;;;;;;;2.10;0.60;;;23.70;99.90;;;;;;5034536;28;20092;-53
2022/07/01 12:33:47;;;;;;;1.50;0.60;;;22.70;99.90;;;;;;5034922;28;20044;-54
2022/07/01 12:36:15;;;;;;;2.22;0.45;;;22.50;99.90;;;;;;5034596;28;20021;-51
2022/07/01 12:38:42;;;;;;;3.65;1.13;;;22.80;99.90;;;;;;5034485;28;20021;-48
2022/07/01 12:41:27;;;;;;;1.90;0.75;;;23.20;99.90;;;;;;5035034;28;20032;-48
2022/07/01 12:43:53;;;;;;;2.40;0.70;;;23.60;99.90;;;;;;5035718;28;20029;-49
2022/07/01 12:46:32;;;;;;;3.90;0.80;;;24.00;99.90;;;;;;5034375;28;20021;-48
2022/07/01 12:49:00;;;;;;;2.58;0.80;;;24.40;99.90;;;;;;5035525;28;20400;-48
2022/07/01 12:51:32;;;;;;;3.55;0.60;;;24.50;99.90;;;;;;5035418;28;20036;-48
2022/07/01 12:53:59;;;;;;;3.80;0.80;;;24.50;99.90;;;;;;5035625;28;20416;-48
2022/07/01 12:56:27;;;;;;;4.03;0.95;;;24.50;99.90;;;;;;5034292;28;20025;-48
2022/07/01 12:58:54;;;;;;;2.05;0.73;;;24.30;99.90;;;;;;5034440;28;20018;-48
2022/07/01 13:01:20;;;;;;;2.47;0.85;;;24.00;99.90;;;;;;5035250;28;20025;-48
2022/07/01 13:03:46;;;;;;;0.80;0.70;;;24.10;99.90;;;;;;5035254;28;20089;-48
2022/07/01 13:06:12;;;;;;;3.08;0.70;;;24.40;99.90;;;;;;5034413;28;20059;-48
2022/07/01 13:08:38;;;;;;;2.22;0.80;;;24.60;99.90;;;;;;5033796;28;20033;-49
2022/07/01 13:11:05;;;;;;;8.23;1.25;;;24.70;99.90;;;;;;5033893;28;20026;-49
2022/07/01 13:13:32;;;;;;;1.30;0.82;;;25.00;99.90;;;;;;5035014;28;20029;-48
2022/07/01 13:15:57;;;;;;;5.10;0.70;;;25.10;99.90;;;;;;5035054;28;20022;-48